createdAt,value
2023-01-26T00:02:38.643Z,1.16
2023-01-26T00:05:44.223Z,1.24
2023-01-26T00:08:57.877Z,1.28
2023-01-26T00:12:03.150Z,1.33
2023-01-26T00:15:09.599Z,1.37
2023-01-26T00:18:16.305Z,1.39
2023-01-26T00:21:23.222Z,1.42
2023-01-26T00:24:28.644Z,1.45
2023-01-26T00:27:34.479Z,1.46
2023-01-26T00:30:41.035Z,1.46
2023-01-26T00:33:47.452Z,1.45
2023-01-26T00:36:53.804Z,1.47
2023-01-26T00:39:59.021Z,1.50
2023-01-26T00:43:07.416Z,1.48
2023-01-26T00:46:12.623Z,1.50
2023-01-26T00:49:18.341Z,1.54
2023-01-26T00:52:24.221Z,1.59
2023-01-26T00:55:30.478Z,1.61
2023-01-26T00:58:37.099Z,1.64
2023-01-26T01:01:43.673Z,1.64
2023-01-26T01:04:48.957Z,1.66
2023-01-26T01:07:55.140Z,1.67
2023-01-26T01:11:01.530Z,1.63
2023-01-26T01:14:08.973Z,1.62
2023-01-26T01:17:15.832Z,1.62
2023-01-26T01:20:23.280Z,1.58
2023-01-26T01:23:29.704Z,1.53
2023-01-26T01:26:34.507Z,1.55
2023-01-26T01:29:40.165Z,1.56
2023-01-26T01:32:51.979Z,1.56
2023-01-26T01:35:57.967Z,1.55
2023-01-26T01:38:59.224Z,1.53
2023-01-26T01:42:04.050Z,1.51
2023-01-26T01:45:43.866Z,1.55
2023-01-26T01:49:12.543Z,1.60
2023-01-26T01:52:27.216Z,1.62
2023-01-26T01:55:33.449Z,1.65
2023-01-26T01:58:38.979Z,1.67
2023-01-26T02:01:46.547Z,1.64
2023-01-26T02:04:52.585Z,1.64
2023-01-26T02:07:59.574Z,1.60
2023-01-26T02:11:07.204Z,1.60
2023-01-26T02:14:13.634Z,1.64
2023-01-26T02:17:23.347Z,1.65
2023-01-26T02:20:53.664Z,1.65
2023-01-26T02:24:20.506Z,1.63
2023-01-26T02:27:27.535Z,1.64
2023-01-26T02:30:32.171Z,1.61
2023-01-26T02:33:42.473Z,1.59
2023-01-26T02:36:48.581Z,1.65
2023-01-26T02:40:16.225Z,1.68
2023-01-26T02:43:22.705Z,1.72
2023-01-26T02:46:29.513Z,1.70
2023-01-26T02:49:50.758Z,1.72
2023-01-26T02:52:58.799Z,1.67
2023-01-26T02:56:05.383Z,1.65
2023-01-26T02:59:10.901Z,1.64
2023-01-26T03:02:15.807Z,1.65
2023-01-26T03:05:23.567Z,1.64
2023-01-26T03:08:33.211Z,1.65
2023-01-26T03:11:41.029Z,1.59
2023-01-26T03:14:47.208Z,1.50
2023-01-26T03:17:53.972Z,1.45
2023-01-26T03:21:21.850Z,1.43
2023-01-26T03:24:46.314Z,1.45
2023-01-26T03:27:55.764Z,1.45
2023-01-26T03:31:01.010Z,1.48
2023-01-26T03:34:06.401Z,1.48
2023-01-26T03:37:12.146Z,1.48
2023-01-26T03:40:38.433Z,1.48
2023-01-26T03:44:04.507Z,1.53
2023-01-26T03:47:27.796Z,1.55
2023-01-26T03:50:52.415Z,1.58
2023-01-26T03:54:16.122Z,1.60
2023-01-26T03:57:22.156Z,1.61
2023-01-26T04:00:29.129Z,1.62
2023-01-26T04:03:55.010Z,1.61
2023-01-26T04:07:20.127Z,1.58
2023-01-26T04:10:28.021Z,1.55
2023-01-26T04:13:55.472Z,1.53
2023-01-26T04:17:20.110Z,1.51
2023-01-26T04:20:43.872Z,1.49
2023-01-26T04:23:49.342Z,1.41
2023-01-26T04:26:56.913Z,1.36
2023-01-26T04:30:07.581Z,1.32
2023-01-26T04:33:13.938Z,1.29
2023-01-26T04:36:22.523Z,1.27
2023-01-26T04:39:27.513Z,1.25
2023-01-26T04:42:32.917Z,1.28
2023-01-26T04:45:38.727Z,1.35
2023-01-26T04:48:46.240Z,1.36
2023-01-26T04:51:53.568Z,1.38
2023-01-26T04:55:01.539Z,1.38
2023-01-26T04:58:09.644Z,1.41
2023-01-26T05:01:16.013Z,1.42
2023-01-26T05:04:21.380Z,1.42
2023-01-26T05:07:26.579Z,1.45
2023-01-26T05:10:33.506Z,1.48
2023-01-26T05:13:47.940Z,1.48
2023-01-26T05:16:56.423Z,1.41
2023-01-26T05:20:13.388Z,1.37
2023-01-26T05:23:27.186Z,1.32
2023-01-26T05:26:32.985Z,1.33
2023-01-26T05:29:41.181Z,1.32
2023-01-26T05:32:49.766Z,1.20
2023-01-26T07:31:39.100Z,1.58
2023-01-26T07:34:52.422Z,1.54
2023-01-26T07:38:10.385Z,1.59
2023-01-26T07:41:39.560Z,1.67
2023-01-26T07:45:23.291Z,1.72
2023-01-26T07:48:31.471Z,1.75
2023-01-26T07:51:41.033Z,1.81
2023-01-26T07:55:15.921Z,1.87
2023-01-26T07:58:36.270Z,1.93
2023-01-26T08:01:59.673Z,1.91
2023-01-26T08:05:22.065Z,1.74
2023-01-26T08:08:31.080Z,1.71
2023-01-26T08:11:51.267Z,1.78
2023-01-26T08:15:17.218Z,1.76
2023-01-26T08:18:40.268Z,1.84
2023-01-26T08:22:12.398Z,1.93
2023-01-26T08:25:45.554Z,1.98
2023-01-26T08:29:13.773Z,2.05
2023-01-26T08:32:35.389Z,2.13
2023-01-26T08:35:50.436Z,2.15
2023-01-26T08:39:09.691Z,2.20
2023-01-26T08:42:34.289Z,2.25
2023-01-26T08:46:02.259Z,2.26
2023-01-26T08:49:18.420Z,2.18
2023-01-26T08:52:32.180Z,2.16
2023-01-26T08:55:44.011Z,2.16
2023-01-26T08:59:16.641Z,2.11
2023-01-26T09:02:36.358Z,2.18
2023-01-26T09:06:08.790Z,2.29
2023-01-26T09:09:22.028Z,2.34
2023-01-26T09:12:42.648Z,2.41
2023-01-26T09:15:55.721Z,2.49
2023-01-26T09:19:14.907Z,2.50
2023-01-26T09:22:27.516Z,2.43
2023-01-26T09:25:42.714Z,2.36
2023-01-26T09:33:00.375Z,2.28
2023-01-26T09:36:28.687Z,2.34
2023-01-26T09:39:55.792Z,2.33
2023-01-26T09:51:11.424Z,2.30
2023-01-26T09:54:49.470Z,2.27
2023-01-26T09:58:25.675Z,2.37
2023-01-26T10:02:06.173Z,2.45
2023-01-26T10:05:25.667Z,2.50
2023-01-26T10:08:43.200Z,2.58
2023-01-26T10:12:10.732Z,2.67
2023-01-26T10:15:44.844Z,2.76
2023-01-26T10:19:22.195Z,2.83
2023-01-26T10:23:00.200Z,2.88
2023-01-26T10:26:13.992Z,2.85
2023-01-26T10:29:30.614Z,2.87
2023-01-26T10:32:42.440Z,2.85
2023-01-26T10:35:58.735Z,2.84
2023-01-26T10:39:16.991Z,2.89
2023-01-26T10:42:39.020Z,2.96
2023-01-26T10:46:04.278Z,2.96
2023-01-26T10:49:20.684Z,2.89
2023-01-26T10:52:38.490Z,2.85
2023-01-26T10:56:03.798Z,2.81
2023-01-26T10:59:22.774Z,2.75
2023-01-26T11:06:44.814Z,2.59
2023-01-26T11:10:16.532Z,2.53
2023-01-26T11:13:49.577Z,2.55
2023-01-26T11:17:31.073Z,2.57
2023-01-26T11:21:10.822Z,2.53
2023-01-26T11:24:36.189Z,2.22
2023-01-26T11:42:30.749Z,2.62
2023-01-26T11:46:33.717Z,2.56
2023-01-26T11:50:08.999Z,2.59
2023-01-26T11:54:01.255Z,2.59
2023-01-26T12:01:08.437Z,2.79
2023-01-26T12:04:40.049Z,2.77
2023-01-26T12:08:51.502Z,2.74
2023-01-26T12:12:30.547Z,2.75
2023-01-26T12:15:51.778Z,2.78
2023-01-26T12:19:31.420Z,2.73
2023-01-26T12:23:01.620Z,2.77
2023-01-26T12:26:47.602Z,2.76
2023-01-26T12:30:37.140Z,2.80
2023-01-26T12:34:06.869Z,2.81
2023-01-26T12:38:17.355Z,2.81
2023-01-26T12:41:45.571Z,2.81
2023-01-26T12:45:24.727Z,2.78
2023-01-26T12:49:01.639Z,2.80
2023-01-26T12:56:37.300Z,2.79
2023-01-26T13:04:01.148Z,2.34
2023-01-26T13:08:03.464Z,2.23
2023-01-26T13:12:24.051Z,2.19
2023-01-26T13:15:58.786Z,2.20
2023-01-26T13:19:20.142Z,2.21
2023-01-26T13:23:11.545Z,2.21
2023-01-26T13:26:40.432Z,2.22
2023-01-26T13:29:57.231Z,2.23
2023-01-26T13:33:28.820Z,2.24
2023-01-26T13:36:43.076Z,2.22
2023-01-26T13:43:32.048Z,2.16
2023-01-26T13:47:31.137Z,2.09
2023-01-26T13:50:53.970Z,2.03
2023-01-26T13:54:33.576Z,1.88
2023-01-26T13:58:34.588Z,1.77
2023-01-26T14:01:52.387Z,1.70
2023-01-26T14:05:26.116Z,1.65
2023-01-26T14:08:41.838Z,1.55
2023-01-26T14:12:23.818Z,1.49
2023-01-26T14:16:06.584Z,1.35
2023-01-26T14:19:40.396Z,1.13
2023-01-26T14:23:13.885Z,1.11
2023-01-26T14:26:57.081Z,1.07
2023-01-26T14:30:35.958Z,1.05
2023-01-26T14:34:05.374Z,1.02
2023-01-26T14:37:50.172Z,0.99
2023-01-26T14:41:18.977Z,1.03
2023-01-26T14:49:05.050Z,0.99
2023-01-26T14:56:16.626Z,0.94
2023-01-26T14:59:46.580Z,1.00
2023-01-26T15:03:24.616Z,0.94
2023-01-26T15:06:55.436Z,0.94
2023-01-26T15:10:16.598Z,0.85
2023-01-26T15:17:35.182Z,0.73
2023-01-26T15:21:01.851Z,0.57
2023-01-26T15:24:39.580Z,0.50
2023-01-26T15:28:11.141Z,0.28
2023-01-26T15:31:52.423Z,0.38
2023-01-26T15:35:23.087Z,0.34
2023-01-26T15:38:49.287Z,0.30
2023-01-26T15:42:27.934Z,0.34
2023-01-26T15:46:12.453Z,0.44
2023-01-26T16:31:25.232Z,0.49
2023-01-26T16:34:36.623Z,0.71
2023-01-26T16:37:56.876Z,0.74
2023-01-26T16:41:22.369Z,0.73
2023-01-26T16:44:43.848Z,0.67
2023-01-26T16:48:01.813Z,0.65
2023-01-26T16:54:40.718Z,0.76
2023-01-26T16:58:00.315Z,0.58
2023-01-26T17:01:16.589Z,0.51
2023-01-26T17:04:31.508Z,0.53
2023-01-26T17:07:53.994Z,0.54
2023-01-26T17:11:13.875Z,0.59
2023-01-26T17:14:32.881Z,0.53
2023-01-26T17:17:52.125Z,0.52
2023-01-26T17:21:09.140Z,0.55
2023-01-26T17:24:32.139Z,0.60
2023-01-26T17:27:46.399Z,0.57
2023-01-26T17:31:05.527Z,0.57
2023-01-26T17:34:20.268Z,0.58
2023-01-26T17:37:35.849Z,0.55
2023-01-26T17:41:02.838Z,0.52
2023-01-26T17:44:23.432Z,0.50
2023-01-26T17:47:48.472Z,0.50
2023-01-26T17:51:20.992Z,0.47
2023-01-26T17:54:49.014Z,0.43
2023-01-26T17:58:04.588Z,0.28
2023-01-26T18:01:32.743Z,0.25
2023-01-26T18:05:00.972Z,0.21
2023-01-26T18:08:13.530Z,0.27
2023-01-26T18:11:27.385Z,0.33
2023-01-26T18:14:40.017Z,0.36
2023-01-26T18:17:54.735Z,0.39
2023-01-26T18:21:08.451Z,0.44
2023-01-26T18:24:19.024Z,0.49
2023-01-26T18:27:39.733Z,0.54
2023-01-26T18:30:47.609Z,0.58
2023-01-26T18:34:07.882Z,0.54
2023-01-26T18:37:27.559Z,0.54
2023-01-26T18:40:38.958Z,0.52
2023-01-26T18:43:49.617Z,0.53
2023-01-26T18:47:06.476Z,0.55
2023-01-26T18:50:18.084Z,0.57
2023-01-26T18:53:28.444Z,0.58
2023-01-26T18:56:50.935Z,0.58
2023-01-26T19:00:08.491Z,0.52
2023-01-26T19:03:26.162Z,0.49
2023-01-26T19:06:43.823Z,0.40
2023-01-26T19:10:18.570Z,0.41
2023-01-26T19:13:33.928Z,0.44
2023-01-26T19:16:44.255Z,0.46
2023-01-26T19:19:56.985Z,0.42
2023-01-26T19:23:13.618Z,0.39
2023-01-26T19:26:29.076Z,0.38
2023-01-26T19:29:40.979Z,0.26
2023-01-26T19:33:11.740Z,0.25
2023-01-26T19:36:24.225Z,0.30
2023-01-26T19:39:34.058Z,0.34
2023-01-26T19:42:46.363Z,0.34
2023-01-26T19:45:56.671Z,0.39
2023-01-26T19:49:10.399Z,0.44
2023-01-26T19:52:24.129Z,0.39
2023-01-26T19:55:40.431Z,0.34
2023-01-26T19:58:55.824Z,0.26
2023-01-26T20:02:11.529Z,0.24
2023-01-26T20:05:22.338Z,0.29
2023-01-26T20:08:39.916Z,0.31
2023-01-26T20:11:55.803Z,0.30
2023-01-26T20:15:12.058Z,0.29
2023-01-26T20:18:29.544Z,0.32
2023-01-26T20:21:41.539Z,0.30
2023-01-26T20:24:59.879Z,0.24
2023-01-26T20:28:17.508Z,0.18
2023-01-26T20:31:39.878Z,0.08
2023-01-26T20:35:00.628Z,0.08
2023-01-26T20:38:09.823Z,0.03
2023-01-26T20:41:24.846Z,-0.10
2023-01-26T20:44:37.424Z,-0.21
2023-01-26T20:47:51.098Z,-0.15
2023-01-26T20:51:07.934Z,-0.13
2023-01-26T20:54:23.152Z,-0.14
2023-01-26T20:57:36.720Z,-0.10
2023-01-26T21:00:53.805Z,-0.14
2023-01-26T21:04:04.788Z,-0.14
2023-01-26T21:07:16.336Z,-0.09
2023-01-26T21:10:29.217Z,-0.07
2023-01-26T21:13:44.486Z,-0.12
2023-01-26T21:16:57.259Z,-0.18
2023-01-26T21:20:16.362Z,-0.19
2023-01-26T21:23:35.492Z,-0.25
2023-01-26T21:26:46.842Z,-0.19
2023-01-26T21:30:08.853Z,-0.15
2023-01-26T21:33:21.965Z,-0.15
2023-01-26T21:36:42.183Z,-0.14
2023-01-26T21:40:04.838Z,-0.19
2023-01-26T21:43:24.453Z,-0.24
2023-01-26T21:46:37.377Z,-0.24
2023-01-26T21:50:02.967Z,-0.24
2023-01-26T21:53:18.029Z,-0.25
2023-01-26T21:56:34.365Z,-0.20
2023-01-26T21:59:50.788Z,-0.16
2023-01-26T22:03:11.668Z,-0.28
2023-01-26T22:06:30.036Z,-0.46
2023-01-26T22:09:59.336Z,-0.48
2023-01-26T22:13:23.075Z,-0.64
2023-01-26T22:16:34.549Z,-0.65
2023-01-26T22:19:42.379Z,-0.61
2023-01-26T22:22:58.120Z,-0.54
2023-01-26T22:26:30.378Z,-0.52
2023-01-26T22:29:46.696Z,-0.60
2023-01-26T22:33:03.622Z,-0.61
2023-01-26T22:36:21.368Z,-0.60
2023-01-26T22:39:38.963Z,-0.59
2023-01-26T22:43:08.651Z,-0.60
2023-01-26T22:46:18.884Z,-0.53
2023-01-26T22:49:21.999Z,-0.50
2023-01-26T22:52:27.001Z,-0.51
2023-01-26T22:55:18.418Z,-0.51
2023-01-26T22:58:57.564Z,-0.60
2023-01-26T23:02:24.002Z,-0.61
2023-01-26T23:05:45.395Z,-0.60
2023-01-26T23:09:07.061Z,-0.57
2023-01-26T23:12:37.771Z,-0.55
2023-01-26T23:16:05.588Z,-0.56
2023-01-26T23:19:19.847Z,-0.55
2023-01-26T23:22:37.680Z,-0.71
2023-01-26T23:26:05.866Z,-0.84
2023-01-26T23:29:27.762Z,-0.99
2023-01-26T23:33:03.648Z,-1.02
2023-01-26T23:36:19.914Z,-1.03
2023-01-26T23:39:38.371Z,-0.97
